Vukovar — 9A2438 — position and weather

sailwx.info

Track history (hours):
 
Tides and Currents Weather Stations Pressure Air Temp Water Temp Dewpoint Dewpoint Depression Visibility Wind Speed Wind Dir Waves Ship Positions

Vukovar

Last reported at 2018-Jan-07 14:51 UTC. Time now 2018-Jan-19 01:58 UTC.
Position N 32°20' W 117°06'.
Warning: this ship's position is 11 days out of date.

Length 183 m; draft 11.3 m.

Type: Tanker. MMSI: 238005000.

Date/timePositionNaut miles runAvg speedWind from/ knotsBaromVisibWave heightAir tempDewpointWater temp
2018-Jan-07 14:51N 32°20' W 117°06'0 0.0
2018-Jan-07 03:09N 32°20' W 117°06'0 0.0
2018-Jan-06 23:09N 32°20' W 117°06'0 0.0
2018-Jan-06 22:33N 32°20' W 117°06'0 0.0
2018-Jan-06 19:33N 32°20' W 117°06'0 0.0
2018-Jan-06 19:21N 32°20' W 117°06'0 0.0
2018-Jan-06 11:06N 32°20' W 117°06'0 0.0
2018-Jan-06 10:51N 32°20' W 117°06'0 0.0
2018-Jan-06 10:30N 32°20' W 117°06'0 0.1
2018-Jan-06 10:00N 32°20' W 117°06'0 0.0
2018-Jan-05 23:36N 32°20' W 117°06'0 0.0
2018-Jan-05 23:24N 32°20' W 117°06'0 0.0
2018-Jan-05 23:00N 32°20' W 117°06'0 0.0
2018-Jan-05 22:27N 32°20' W 117°06'0 0.0
2018-Jan-05 00:21N 32°20' W 117°06'0 0.0
2018-Jan-04 22:45N 32°20' W 117°06'0 0.0
2018-Jan-04 22:15N 32°20' W 117°06'25 3.4
2018-Jan-04 14:58N 32°02' W 117°27'613.2
2018-Jan-04 14:30N 31°58' W 117°32'913.3
2018-Jan-04 13:52N 31°52' W 117°39'513.3
2018-Jan-04 13:30N 31°48' W 117°43'1913.1
2018-Jan-04 12:05N 31°35' W 117°58'113.6
2018-Jan-04 12:00N 31°34' W 117°59'713.4
2018-Jan-04 11:30N 31°29' W 118°05'713.3
2018-Jan-04 11:00N 31°24' W 118°10'713.1
2018-Jan-04 10:30N 31°19' W 118°15'912.7
2018-Jan-04 09:49N 31°13' W 118°22'513.0
2018-Jan-04 09:24N 31°09' W 118°26'1212.5
2018-Jan-04 08:25N 31°02' W 118°38'613.2
2018-Jan-04 07:59N 31°01' W 118°45'36510.8
2018-Jan-02 22:05N 33°55' W 125°05'1013.0
2018-Jan-02 21:17N 34°04' W 125°10'412.9
2018-Jan-02 21:00N 34°08' W 125°12'713.2
2018-Jan-02 20:30N 34°13' W 125°16'612.9
2018-Jan-02 20:00N 34°19' W 125°20'612.9
2018-Jan-02 19:30N 34°24' W 125°24'613.1
2018-Jan-02 19:00N 34°30' W 125°28'713.0
2018-Jan-02 18:30N 34°36' W 125°32'713.1
2018-Jan-02 18:00N 34°42' W 125°36'713.3
2018-Jan-02 17:30N 34°48' W 125°39'713.5
2018-Jan-02 17:00N 34°53' W 125°43'713.0
2018-Jan-02 16:27N 34°60' W 125°47'612.8
2018-Jan-02 16:00N 35°06' W 125°47'812.3
2018-Jan-02 15:22N 35°13' W 125°46'1812.5
2018-Jan-02 13:57N 35°27' W 125°32'912.4
2018-Jan-02 13:15N 35°33' W 125°25'412.5
2018-Jan-02 12:57N 35°36' W 125°22'612.6
2018-Jan-02 12:30N 35°40' W 125°17'612.5
2018-Jan-02 12:00N 35°45' W 125°12'612.4
2018-Jan-02 11:30N 35°49' W 125°07'612.5
2018-Jan-02 11:00N 35°54' W 125°02'612.4
2018-Jan-02 10:30N 35°59' W 124°56'612.5
2018-Jan-02 10:00N 36°03' W 124°51'612.4
2018-Jan-02 09:30N 36°07' W 124°45'1312.3
2018-Jan-02 08:27N 36°17' W 124°34'3012.4
2018-Jan-02 06:01N 36°39' W 124°09'012.6
2018-Jan-02 06:00N 36°39' W 124°09'812.5
2018-Jan-02 05:24N 36°45' W 124°03'1212.6
2018-Jan-02 04:29N 36°54' W 123°53'612.7
2018-Jan-02 04:00N 36°58' W 123°48'612.7
2018-Jan-02 03:30N 37°03' W 123°43'712.9
2018-Jan-02 02:56N 37°08' W 123°36'612.9
2018-Jan-02 02:30N 37°12' W 123°32'612.6
2018-Jan-02 02:00N 37°17' W 123°26'612.8
2018-Jan-02 01:30N 37°22' W 123°21'713.0
2018-Jan-02 00:58N 37°27' W 123°15'613.0
2018-Jan-02 00:30N 37°31' W 123°10'612.9
2018-Jan-02 00:00N 37°35' W 123°03'612.9
2018-Jan-01 23:30N 37°38' W 122°56'612.9
2018-Jan-01 23:00N 37°42' W 122°49'612.7
2018-Jan-01 22:30N 37°45' W 122°42'611.2
2018-Jan-01 22:00N 37°47' W 122°36'714.6
2018-Jan-01 21:30N 37°50' W 122°27'4 7.7
2018-Jan-01 21:00N 37°54' W 122°26'4 7.2
2018-Jan-01 20:30N 37°57' W 122°27'510.0
2018-Jan-01 20:00N 38°02' W 122°23'4 7.7
2018-Jan-01 19:30N 38°03' W 122°19'4 7.6
2018-Jan-01 19:00N 38°04' W 122°14'4 7.5
2018-Jan-01 18:26N 38°02' W 122°09'3 0.1
2017-Dec-30 15:09N 38°03' W 122°05'0 1.2
2017-Dec-30 15:00N 38°03' W 122°06'2 3.7
2017-Dec-30 14:30N 38°02' W 122°08'4 8.2
2017-Dec-30 14:00N 38°04' W 122°13'510.2
2017-Dec-30 13:30N 38°03' W 122°19'510.5
2017-Dec-30 13:00N 38°00' W 122°25'510.3
2017-Dec-30 12:30N 37°56' W 122°27'5 9.3
2017-Dec-30 12:00N 37°51' W 122°25'4 7.7
2017-Dec-30 11:31N 37°49' W 122°29'5 9.6
2017-Dec-30 11:00N 37°47' W 122°34'510.8
2017-Dec-30 10:30N 37°45' W 122°41'3 5.7
2017-Dec-30 10:00N 37°42' W 122°41'2 3.8
2017-Dec-30 09:30N 37°40' W 122°40'2 3.1
2017-Dec-30 09:00N 37°39' W 122°40'2 4.0
2017-Dec-30 08:30N 37°37' W 122°39'2 3.9
2017-Dec-30 08:00N 37°35' W 122°39'1 2.7
2017-Dec-30 07:31N 37°33' W 122°39'2 4.1
2017-Dec-30 07:00N 37°31' W 122°39'2 4.3
2017-Dec-30 06:31N 37°29' W 122°39'2 4.2
2017-Dec-30 06:00N 37°27' W 122°40'2 4.1
2017-Dec-30 05:31N 37°25' W 122°40'2 4.8
2017-Dec-30 05:00N 37°23' W 122°40'611.4
2017-Dec-30 04:30N 37°17' W 122°40'612.3
2017-Dec-30 04:01N 37°11' W 122°43'612.4
2017-Dec-30 03:30N 37°05' W 122°45'612.2
2017-Dec-30 03:01N 36°60' W 122°48'3 5.6
2017-Dec-30 02:30N 36°57' W 122°47'4 8.7
2017-Dec-30 02:00N 36°53' W 122°45'612.4
2017-Dec-30 01:30N 36°47' W 122°42'612.3
2017-Dec-30 01:01N 36°42' W 122°39'612.6
2017-Dec-30 00:31N 36°36' W 122°35'612.5
2017-Dec-30 00:01N 36°30' W 122°32'612.7
2017-Dec-29 23:30N 36°24' W 122°29'612.7
2017-Dec-29 23:00N 36°19' W 122°26'612.6
2017-Dec-29 22:30N 36°13' W 122°22'612.6
2017-Dec-29 22:00N 36°08' W 122°17'612.6
2017-Dec-29 21:31N 36°03' W 122°13'612.7
2017-Dec-29 21:01N 35°58' W 122°09'612.7
2017-Dec-29 20:31N 35°52' W 122°04'612.9
2017-Dec-29 20:00N 35°47' W 121°60'713.0
2017-Dec-29 19:30N 35°42' W 121°55'612.9
2017-Dec-29 19:01N 35°36' W 121°51'713.5
2017-Dec-29 18:30N 35°30' W 121°47'713.6
2017-Dec-29 18:00N 35°25' W 121°42'612.5
2017-Dec-29 17:30N 35°19' W 121°38'612.7
2017-Dec-29 17:00N 35°14' W 121°34'612.6
2017-Dec-29 16:30N 35°09' W 121°30'612.6
2017-Dec-29 16:00N 35°03' W 121°26'612.8
2017-Dec-29 15:30N 34°58' W 121°22'612.3
2017-Dec-29 15:00N 34°53' W 121°17'612.5
2017-Dec-29 14:30N 34°48' W 121°12'612.4
2017-Dec-29 14:00N 34°42' W 121°09'612.4
2017-Dec-29 13:30N 34°37' W 121°05'612.9
2017-Dec-29 13:00N 34°32' W 121°01'612.2
2017-Dec-29 12:30N 34°27' W 120°56'713.1
2017-Dec-29 11:57N 34°25' W 120°47'613.2
2017-Dec-29 11:30N 34°24' W 120°41'713.3
2017-Dec-29 11:00N 34°22' W 120°33'713.5
2017-Dec-29 10:28N 34°20' W 120°24'613.1
2017-Dec-29 10:00N 34°19' W 120°17'713.0
2017-Dec-29 09:29N 34°17' W 120°09'712.9
2017-Dec-29 08:59N 34°15' W 120°02'612.7
2017-Dec-29 08:29N 34°13' W 119°54'612.7
2017-Dec-29 07:58N 34°12' W 119°47'613.1
2017-Dec-29 07:29N 34°10' W 119°39'613.1
2017-Dec-29 07:00N 34°08' W 119°32'813.1
2017-Dec-29 06:25N 34°06' W 119°23'612.9
2017-Dec-29 05:56N 34°04' W 119°16'612.9
2017-Dec-29 05:28N 34°02' W 119°09'612.9
2017-Dec-29 04:58N 33°58' W 119°03'612.8
2017-Dec-29 04:30N 33°56' W 118°56'912.1
2017-Dec-29 03:45N 33°51' W 118°47'311.6
2017-Dec-29 03:28N 33°49' W 118°44'611.6
2017-Dec-29 02:58N 33°46' W 118°38'611.9
2017-Dec-29 02:30N 33°44' W 118°32'612.1
2017-Dec-29 01:58N 33°40' W 118°25'511.6
2017-Dec-29 01:30N 33°38' W 118°19'5 9.8
2017-Dec-29 01:00N 33°42' W 118°15'3 5.8
2017-Dec-29 00:30N 33°45' W 118°17'1 0.3
2017-Dec-28 21:13N 33°45' W 118°16'  
Track history (hours):
 
Tides and Currents Weather Stations Pressure Air Temp Water Temp Dewpoint Dewpoint Depression Visibility Wind Speed Wind Dir Waves Ship Positions

Vukovar

Last reported at 2018-Jan-07 14:51 UTC. Time now 2018-Jan-19 01:58 UTC.
Position N 32°20' W 117°06'.
Warning: this ship's position is 11 days out of date.

Length 183 m; draft 11.3 m.

Type: Tanker. MMSI: 238005000.

Date/timePositionNaut miles runAvg speedWind from/ knotsBaromVisibWave heightAir tempDewpointWater temp
2018-Jan-07 14:51N 32°20' W 117°06'0 0.0
2018-Jan-07 03:09N 32°20' W 117°06'0 0.0
2018-Jan-06 23:09N 32°20' W 117°06'0 0.0
2018-Jan-06 22:33N 32°20' W 117°06'0 0.0
2018-Jan-06 19:33N 32°20' W 117°06'0 0.0
2018-Jan-06 19:21N 32°20' W 117°06'0 0.0
2018-Jan-06 11:06N 32°20' W 117°06'0 0.0
2018-Jan-06 10:51N 32°20' W 117°06'0 0.0
2018-Jan-06 10:30N 32°20' W 117°06'0 0.1
2018-Jan-06 10:00N 32°20' W 117°06'0 0.0
2018-Jan-05 23:36N 32°20' W 117°06'0 0.0
2018-Jan-05 23:24N 32°20' W 117°06'0 0.0
2018-Jan-05 23:00N 32°20' W 117°06'0 0.0
2018-Jan-05 22:27N 32°20' W 117°06'0 0.0
2018-Jan-05 00:21N 32°20' W 117°06'0 0.0
2018-Jan-04 22:45N 32°20' W 117°06'0 0.0
2018-Jan-04 22:15N 32°20' W 117°06'25 3.4
2018-Jan-04 14:58N 32°02' W 117°27'613.2
2018-Jan-04 14:30N 31°58' W 117°32'913.3
2018-Jan-04 13:52N 31°52' W 117°39'513.3
2018-Jan-04 13:30N 31°48' W 117°43'1913.1
2018-Jan-04 12:05N 31°35' W 117°58'113.6
2018-Jan-04 12:00N 31°34' W 117°59'713.4
2018-Jan-04 11:30N 31°29' W 118°05'713.3
2018-Jan-04 11:00N 31°24' W 118°10'713.1
2018-Jan-04 10:30N 31°19' W 118°15'912.7
2018-Jan-04 09:49N 31°13' W 118°22'513.0
2018-Jan-04 09:24N 31°09' W 118°26'1212.5
2018-Jan-04 08:25N 31°02' W 118°38'613.2
2018-Jan-04 07:59N 31°01' W 118°45'36510.8
2018-Jan-02 22:05N 33°55' W 125°05'1013.0
2018-Jan-02 21:17N 34°04' W 125°10'412.9
2018-Jan-02 21:00N 34°08' W 125°12'713.2
2018-Jan-02 20:30N 34°13' W 125°16'612.9
2018-Jan-02 20:00N 34°19' W 125°20'612.9
2018-Jan-02 19:30N 34°24' W 125°24'613.1
2018-Jan-02 19:00N 34°30' W 125°28'713.0
2018-Jan-02 18:30N 34°36' W 125°32'713.1
2018-Jan-02 18:00N 34°42' W 125°36'713.3
2018-Jan-02 17:30N 34°48' W 125°39'713.5
2018-Jan-02 17:00N 34°53' W 125°43'713.0
2018-Jan-02 16:27N 34°60' W 125°47'612.8
2018-Jan-02 16:00N 35°06' W 125°47'812.3
2018-Jan-02 15:22N 35°13' W 125°46'1812.5
2018-Jan-02 13:57N 35°27' W 125°32'912.4
2018-Jan-02 13:15N 35°33' W 125°25'412.5
2018-Jan-02 12:57N 35°36' W 125°22'612.6
2018-Jan-02 12:30N 35°40' W 125°17'612.5
2018-Jan-02 12:00N 35°45' W 125°12'612.4
2018-Jan-02 11:30N 35°49' W 125°07'612.5
2018-Jan-02 11:00N 35°54' W 125°02'612.4
2018-Jan-02 10:30N 35°59' W 124°56'612.5
2018-Jan-02 10:00N 36°03' W 124°51'612.4
2018-Jan-02 09:30N 36°07' W 124°45'1312.3
2018-Jan-02 08:27N 36°17' W 124°34'3012.4
2018-Jan-02 06:01N 36°39' W 124°09'012.6
2018-Jan-02 06:00N 36°39' W 124°09'812.5
2018-Jan-02 05:24N 36°45' W 124°03'1212.6
2018-Jan-02 04:29N 36°54' W 123°53'612.7
2018-Jan-02 04:00N 36°58' W 123°48'612.7
2018-Jan-02 03:30N 37°03' W 123°43'712.9
2018-Jan-02 02:56N 37°08' W 123°36'612.9
2018-Jan-02 02:30N 37°12' W 123°32'612.6
2018-Jan-02 02:00N 37°17' W 123°26'612.8
2018-Jan-02 01:30N 37°22' W 123°21'713.0
2018-Jan-02 00:58N 37°27' W 123°15'613.0
2018-Jan-02 00:30N 37°31' W 123°10'612.9
2018-Jan-02 00:00N 37°35' W 123°03'612.9
2018-Jan-01 23:30N 37°38' W 122°56'612.9
2018-Jan-01 23:00N 37°42' W 122°49'612.7
2018-Jan-01 22:30N 37°45' W 122°42'611.2
2018-Jan-01 22:00N 37°47' W 122°36'714.6
2018-Jan-01 21:30N 37°50' W 122°27'4 7.7
2018-Jan-01 21:00N 37°54' W 122°26'4 7.2
2018-Jan-01 20:30N 37°57' W 122°27'510.0
2018-Jan-01 20:00N 38°02' W 122°23'4 7.7
2018-Jan-01 19:30N 38°03' W 122°19'4 7.6
2018-Jan-01 19:00N 38°04' W 122°14'4 7.5
2018-Jan-01 18:26N 38°02' W 122°09'3 0.1
2017-Dec-30 15:09N 38°03' W 122°05'0 1.2
2017-Dec-30 15:00N 38°03' W 122°06'2 3.7
2017-Dec-30 14:30N 38°02' W 122°08'4 8.2
2017-Dec-30 14:00N 38°04' W 122°13'510.2
2017-Dec-30 13:30N 38°03' W 122°19'510.5
2017-Dec-30 13:00N 38°00' W 122°25'510.3
2017-Dec-30 12:30N 37°56' W 122°27'5 9.3
2017-Dec-30 12:00N 37°51' W 122°25'4 7.7
2017-Dec-30 11:31N 37°49' W 122°29'5 9.6
2017-Dec-30 11:00N 37°47' W 122°34'510.8
2017-Dec-30 10:30N 37°45' W 122°41'3 5.7
2017-Dec-30 10:00N 37°42' W 122°41'2 3.8
2017-Dec-30 09:30N 37°40' W 122°40'2 3.1
2017-Dec-30 09:00N 37°39' W 122°40'2 4.0
2017-Dec-30 08:30N 37°37' W 122°39'2 3.9
2017-Dec-30 08:00N 37°35' W 122°39'1 2.7
2017-Dec-30 07:31N 37°33' W 122°39'2 4.1
2017-Dec-30 07:00N 37°31' W 122°39'2 4.3
2017-Dec-30 06:31N 37°29' W 122°39'2 4.2
2017-Dec-30 06:00N 37°27' W 122°40'2 4.1
2017-Dec-30 05:31N 37°25' W 122°40'2 4.8
2017-Dec-30 05:00N 37°23' W 122°40'611.4
2017-Dec-30 04:30N 37°17' W 122°40'612.3
2017-Dec-30 04:01N 37°11' W 122°43'612.4
2017-Dec-30 03:30N 37°05' W 122°45'612.2
2017-Dec-30 03:01N 36°60' W 122°48'3 5.6
2017-Dec-30 02:30N 36°57' W 122°47'4 8.7
2017-Dec-30 02:00N 36°53' W 122°45'612.4
2017-Dec-30 01:30N 36°47' W 122°42'612.3
2017-Dec-30 01:01N 36°42' W 122°39'612.6
2017-Dec-30 00:31N 36°36' W 122°35'612.5
2017-Dec-30 00:01N 36°30' W 122°32'612.7
2017-Dec-29 23:30N 36°24' W 122°29'612.7
2017-Dec-29 23:00N 36°19' W 122°26'612.6
2017-Dec-29 22:30N 36°13' W 122°22'612.6
2017-Dec-29 22:00N 36°08' W 122°17'612.6
2017-Dec-29 21:31N 36°03' W 122°13'612.7
2017-Dec-29 21:01N 35°58' W 122°09'612.7
2017-Dec-29 20:31N 35°52' W 122°04'612.9
2017-Dec-29 20:00N 35°47' W 121°60'713.0
2017-Dec-29 19:30N 35°42' W 121°55'612.9
2017-Dec-29 19:01N 35°36' W 121°51'713.5
2017-Dec-29 18:30N 35°30' W 121°47'713.6
2017-Dec-29 18:00N 35°25' W 121°42'612.5
2017-Dec-29 17:30N 35°19' W 121°38'612.7
2017-Dec-29 17:00N 35°14' W 121°34'612.6
2017-Dec-29 16:30N 35°09' W 121°30'612.6
2017-Dec-29 16:00N 35°03' W 121°26'612.8
2017-Dec-29 15:30N 34°58' W 121°22'612.3
2017-Dec-29 15:00N 34°53' W 121°17'612.5
2017-Dec-29 14:30N 34°48' W 121°12'612.4
2017-Dec-29 14:00N 34°42' W 121°09'612.4
2017-Dec-29 13:30N 34°37' W 121°05'612.9
2017-Dec-29 13:00N 34°32' W 121°01'612.2
2017-Dec-29 12:30N 34°27' W 120°56'713.1
2017-Dec-29 11:57N 34°25' W 120°47'613.2
2017-Dec-29 11:30N 34°24' W 120°41'713.3
2017-Dec-29 11:00N 34°22' W 120°33'713.5
2017-Dec-29 10:28N 34°20' W 120°24'613.1
2017-Dec-29 10:00N 34°19' W 120°17'713.0
2017-Dec-29 09:29N 34°17' W 120°09'712.9
2017-Dec-29 08:59N 34°15' W 120°02'612.7
2017-Dec-29 08:29N 34°13' W 119°54'612.7
2017-Dec-29 07:58N 34°12' W 119°47'613.1
2017-Dec-29 07:29N 34°10' W 119°39'613.1
2017-Dec-29 07:00N 34°08' W 119°32'813.1
2017-Dec-29 06:25N 34°06' W 119°23'612.9
2017-Dec-29 05:56N 34°04' W 119°16'612.9
2017-Dec-29 05:28N 34°02' W 119°09'612.9
2017-Dec-29 04:58N 33°58' W 119°03'612.8
2017-Dec-29 04:30N 33°56' W 118°56'912.1
2017-Dec-29 03:45N 33°51' W 118°47'311.6
2017-Dec-29 03:28N 33°49' W 118°44'611.6
2017-Dec-29 02:58N 33°46' W 118°38'611.9
2017-Dec-29 02:30N 33°44' W 118°32'612.1
2017-Dec-29 01:58N 33°40' W 118°25'511.6
2017-Dec-29 01:30N 33°38' W 118°19'5 9.8
2017-Dec-29 01:00N 33°42' W 118°15'3 5.8
2017-Dec-29 00:30N 33°45' W 118°17'1 0.3
2017-Dec-28 21:13N 33°45' W 118°16'  

Dump ship's entire track history